createdAt,value
2023-12-31T00:00:36.566Z,10.65
2023-12-31T00:03:03.792Z,11.32
2023-12-31T00:05:30.720Z,7.75
2023-12-31T00:07:57.459Z,9.70
2023-12-31T00:10:24.111Z,8.23
2023-12-31T00:12:50.805Z,8.52
2023-12-31T00:15:19.107Z,11.77
2023-12-31T00:17:45.835Z,9.93
2023-12-31T00:20:12.928Z,9.05
2023-12-31T00:22:39.653Z,10.13
2023-12-31T00:25:07.029Z,8.48
2023-12-31T00:27:33.714Z,11.30
2023-12-31T00:30:00.358Z,9.70
2023-12-31T00:32:27.054Z,7.88
2023-12-31T00:34:53.728Z,8.48
2023-12-31T00:37:20.381Z,11.20
2023-12-31T00:39:47.010Z,11.05
2023-12-31T00:42:13.660Z,10.38
2023-12-31T00:44:40.282Z,10.45
2023-12-31T00:47:07.022Z,11.35
2023-12-31T00:49:33.660Z,11.32
2023-12-31T00:52:00.340Z,8.95
2023-12-31T00:54:27.367Z,10.52
2023-12-31T00:56:54.034Z,11.55
2023-12-31T00:59:20.661Z,8.95
2023-12-31T01:01:47.876Z,12.60
2023-12-31T01:04:14.999Z,8.60
2023-12-31T01:06:41.645Z,11.02
2023-12-31T01:09:08.286Z,9.10
2023-12-31T01:11:35.271Z,9.77
2023-12-31T01:14:03.004Z,9.05
2023-12-31T01:16:29.737Z,10.40
2023-12-31T01:18:56.981Z,11.80
2023-12-31T01:21:23.750Z,9.18
2023-12-31T01:23:50.397Z,9.18
2023-12-31T01:26:17.015Z,10.55
2023-12-31T01:28:43.702Z,10.20
2023-12-31T01:31:19.669Z,9.57
2023-12-31T01:33:47.029Z,10.60
2023-12-31T01:36:15.879Z,12.82
2023-12-31T01:38:43.699Z,12.65
2023-12-31T01:41:10.865Z,14.45
2023-12-31T01:43:38.077Z,10.70
2023-12-31T01:46:06.800Z,10.30
2023-12-31T01:48:35.871Z,10.38
2023-12-31T01:51:04.020Z,7.80
2023-12-31T01:53:31.356Z,11.07
2023-12-31T01:55:59.473Z,9.95
2023-12-31T01:58:26.403Z,12.80
2023-12-31T02:00:53.399Z,11.20
2023-12-31T02:03:20.242Z,12.00
2023-12-31T02:05:47.735Z,10.45
2023-12-31T02:08:14.602Z,6.32
2023-12-31T02:10:41.374Z,9.60
2023-12-31T02:13:08.109Z,13.00
2023-12-31T02:15:35.970Z,11.25
2023-12-31T02:18:04.090Z,7.25
2023-12-31T02:20:31.867Z,8.57
2023-12-31T02:22:59.477Z,8.30
2023-12-31T02:25:29.358Z,9.23
2023-12-31T02:27:57.029Z,10.35
2023-12-31T02:30:25.868Z,12.05
2023-12-31T02:32:52.621Z,13.43
2023-12-31T02:35:19.477Z,10.82
2023-12-31T02:37:46.152Z,10.43
2023-12-31T02:40:12.949Z,12.23
2023-12-31T02:42:39.699Z,12.25
2023-12-31T02:45:07.061Z,8.50
2023-12-31T02:47:33.753Z,10.73
2023-12-31T02:50:00.401Z,10.45
2023-12-31T02:52:27.157Z,10.68
2023-12-31T02:54:53.816Z,8.15
2023-12-31T02:57:20.753Z,8.82
2023-12-31T02:59:47.347Z,9.52
2023-12-31T03:02:14.049Z,7.90
2023-12-31T03:04:44.117Z,11.65
2023-12-31T03:07:10.903Z,6.93
2023-12-31T03:09:37.575Z,9.95
2023-12-31T03:12:04.769Z,8.98
2023-12-31T03:14:31.487Z,10.50
2023-12-31T03:16:59.021Z,6.57
2023-12-31T03:19:25.765Z,6.05
2023-12-31T03:21:52.501Z,5.28
2023-12-31T03:24:21.919Z,7.85
2023-12-31T03:26:48.564Z,8.05
2023-12-31T03:29:15.262Z,6.40
2023-12-31T03:31:44.408Z,11.55
2023-12-31T03:34:13.041Z,7.88
2023-12-31T03:36:39.698Z,9.30
2023-12-31T03:39:06.717Z,15.45
2023-12-31T03:41:33.394Z,7.95
2023-12-31T03:44:01.106Z,6.55
2023-12-31T03:46:29.412Z,5.80
2023-12-31T03:48:56.284Z,6.15
2023-12-31T03:51:23.542Z,8.10
2023-12-31T03:53:50.160Z,4.85
2023-12-31T03:56:16.871Z,9.45
2023-12-31T03:58:43.606Z,8.10
2023-12-31T04:01:10.321Z,7.43
2023-12-31T04:03:40.129Z,5.65
2023-12-31T04:06:08.182Z,4.13
2023-12-31T04:08:34.962Z,7.45
2023-12-31T04:11:01.577Z,6.45
2023-12-31T04:13:29.952Z,6.28
2023-12-31T04:15:56.814Z,6.97
2023-12-31T04:18:23.497Z,3.97
2023-12-31T04:20:50.390Z,4.38
2023-12-31T04:23:17.005Z,5.70
2023-12-31T04:25:44.101Z,6.75
2023-12-31T04:28:11.047Z,9.70
2023-12-31T04:30:41.547Z,5.85
2023-12-31T04:33:08.438Z,5.30
2023-12-31T04:35:35.107Z,6.20
2023-12-31T04:38:02.080Z,4.10
2023-12-31T04:40:28.758Z,5.22
2023-12-31T04:42:55.444Z,7.60
2023-12-31T04:45:22.131Z,4.38
2023-12-31T04:47:48.857Z,4.45
2023-12-31T04:50:15.719Z,5.53
2023-12-31T04:52:42.492Z,4.72
2023-12-31T04:55:09.416Z,6.28
2023-12-31T04:57:40.368Z,3.65
2023-12-31T05:00:07.859Z,4.95
2023-12-31T05:02:34.851Z,3.90
2023-12-31T05:05:03.745Z,3.85
2023-12-31T05:07:30.481Z,8.90
2023-12-31T05:09:57.270Z,6.47
2023-12-31T05:12:24.345Z,5.68
2023-12-31T05:14:51.090Z,4.28
2023-12-31T05:17:17.768Z,3.58
2023-12-31T05:19:46.276Z,3.08
2023-12-31T05:22:13.036Z,3.95
2023-12-31T05:24:40.061Z,3.90
2023-12-31T05:27:06.737Z,3.97
2023-12-31T05:29:33.366Z,4.60
2023-12-31T05:32:00.105Z,4.63
2023-12-31T05:34:27.443Z,3.78
2023-12-31T05:36:54.068Z,5.38
2023-12-31T05:39:20.739Z,4.55
2023-12-31T05:41:47.368Z,5.82
2023-12-31T05:44:14.151Z,3.88
2023-12-31T05:46:41.034Z,6.50
2023-12-31T05:49:07.999Z,5.88
2023-12-31T05:51:35.094Z,3.83
2023-12-31T05:54:01.944Z,9.13
2023-12-31T05:56:28.606Z,4.47
2023-12-31T05:58:55.977Z,9.43
2023-12-31T06:01:22.908Z,5.15
2023-12-31T06:03:49.657Z,4.85
2023-12-31T06:06:17.110Z,4.20
2023-12-31T06:08:45.262Z,3.95
2023-12-31T06:11:11.949Z,3.50
2023-12-31T06:13:38.871Z,4.70
2023-12-31T06:16:05.774Z,4.13
2023-12-31T06:18:32.502Z,6.75
2023-12-31T06:20:59.145Z,4.90
2023-12-31T06:23:26.121Z,4.32
2023-12-31T06:25:52.864Z,6.78
2023-12-31T06:28:19.597Z,6.85
2023-12-31T06:30:46.309Z,7.47
2023-12-31T06:33:13.158Z,6.20
2023-12-31T06:35:40.557Z,7.50
2023-12-31T06:38:07.199Z,6.30
2023-12-31T06:40:33.900Z,7.93
2023-12-31T06:43:00.717Z,9.35
2023-12-31T06:45:27.663Z,8.55
2023-12-31T06:47:54.343Z,5.45
2023-12-31T06:50:21.037Z,5.80
2023-12-31T06:52:47.764Z,5.70
2023-12-31T06:55:15.684Z,8.75
2023-12-31T06:57:42.402Z,6.05
2023-12-31T07:00:09.701Z,7.68
2023-12-31T07:02:37.003Z,12.38
2023-12-31T07:05:08.797Z,18.17
2023-12-31T07:07:35.942Z,16.80
2023-12-31T07:10:02.982Z,10.13
2023-12-31T07:12:29.635Z,10.45
2023-12-31T07:14:56.864Z,8.85
2023-12-31T07:17:30.011Z,9.57
2023-12-31T07:19:57.989Z,8.20
2023-12-31T07:22:25.728Z,7.97
2023-12-31T07:24:52.384Z,6.05
2023-12-31T07:27:19.001Z,7.55
2023-12-31T07:29:45.731Z,7.05
2023-12-31T07:32:12.433Z,8.80
2023-12-31T07:34:39.446Z,9.00
2023-12-31T07:37:06.095Z,5.75
2023-12-31T07:39:33.220Z,3.85
2023-12-31T07:41:59.883Z,3.65
2023-12-31T07:44:26.536Z,6.38
2023-12-31T07:46:53.242Z,3.22
2023-12-31T07:49:19.921Z,5.38
2023-12-31T07:51:46.609Z,5.20
2023-12-31T07:54:13.250Z,6.32
2023-12-31T07:56:42.238Z,18.83
2023-12-31T07:59:09.670Z,9.98
2023-12-31T08:01:36.345Z,6.50
2023-12-31T08:04:03.169Z,5.18
2023-12-31T08:06:29.927Z,4.68
2023-12-31T08:08:56.693Z,14.90
2023-12-31T08:11:23.388Z,11.52
2023-12-31T08:13:50.461Z,9.90
2023-12-31T08:16:17.605Z,13.23
2023-12-31T08:18:44.445Z,10.73
2023-12-31T08:21:11.991Z,13.75
2023-12-31T08:23:38.811Z,12.57
2023-12-31T08:26:05.478Z,11.43
2023-12-31T08:28:32.375Z,13.95
2023-12-31T08:30:59.081Z,4.68
2023-12-31T08:33:25.794Z,6.82
2023-12-31T08:35:52.527Z,5.68
2023-12-31T08:38:19.496Z,3.85
2023-12-31T08:40:46.253Z,2.72
2023-12-31T08:43:13.040Z,3.45
2023-12-31T08:45:40.658Z,2.88
2023-12-31T08:48:11.519Z,4.70
2023-12-31T08:50:38.212Z,2.67
2023-12-31T08:53:05.326Z,6.72
2023-12-31T08:55:32.311Z,3.45
2023-12-31T08:57:59.549Z,5.18
2023-12-31T09:00:26.285Z,2.83
2023-12-31T09:02:52.928Z,3.08
2023-12-31T09:05:19.713Z,7.82
2023-12-31T09:07:46.758Z,3.05
2023-12-31T09:10:13.533Z,5.15
2023-12-31T09:12:40.258Z,7.22
2023-12-31T09:15:08.051Z,3.20
2023-12-31T09:17:37.504Z,2.42
2023-12-31T09:20:09.718Z,2.28
2023-12-31T09:22:37.068Z,3.45
2023-12-31T09:25:06.984Z,3.35
2023-12-31T09:27:33.895Z,6.18
2023-12-31T09:30:00.528Z,3.65
2023-12-31T09:32:27.659Z,4.05
2023-12-31T09:34:54.401Z,2.97
2023-12-31T09:37:21.360Z,2.28
2023-12-31T09:39:49.226Z,4.05
2023-12-31T09:42:40.460Z,3.30
2023-12-31T09:45:09.213Z,5.25
2023-12-31T09:47:36.900Z,7.28
2023-12-31T09:50:04.997Z,3.75
2023-12-31T09:52:32.865Z,3.28
2023-12-31T09:55:01.791Z,2.65
2023-12-31T09:57:32.134Z,2.38
2023-12-31T10:00:02.181Z,3.50
2023-12-31T10:02:29.190Z,2.95
2023-12-31T10:04:56.029Z,3.17
2023-12-31T10:07:24.153Z,3.00
2023-12-31T10:09:51.458Z,3.03
2023-12-31T10:12:18.395Z,2.78
2023-12-31T10:14:45.110Z,3.55
2023-12-31T10:17:12.503Z,4.00
2023-12-31T10:19:41.708Z,3.05
2023-12-31T10:22:12.146Z,3.72
2023-12-31T10:24:38.849Z,2.85
2023-12-31T10:27:09.949Z,3.20
2023-12-31T10:29:38.107Z,3.83
2023-12-31T10:32:07.348Z,2.28
2023-12-31T10:34:34.805Z,5.40
2023-12-31T10:37:07.708Z,5.32
2023-12-31T10:39:39.960Z,3.90
2023-12-31T10:42:07.803Z,2.60
2023-12-31T10:44:37.276Z,3.10
2023-12-31T10:47:10.697Z,3.70
2023-12-31T10:49:44.949Z,3.83
2023-12-31T10:52:15.763Z,3.28
2023-12-31T10:54:52.795Z,2.55
2023-12-31T10:57:22.450Z,2.30
2023-12-31T10:59:50.158Z,4.05
2023-12-31T11:02:21.889Z,3.22
2023-12-31T11:04:50.548Z,2.72
2023-12-31T11:07:20.896Z,2.30
2023-12-31T11:09:49.458Z,3.83
2023-12-31T11:12:17.331Z,2.90
2023-12-31T11:15:09.940Z,4.13
2023-12-31T11:18:14.249Z,3.25
2023-12-31T11:21:13.057Z,3.05
2023-12-31T11:24:15.713Z,5.68
2023-12-31T11:26:42.513Z,4.28
2023-12-31T11:29:12.841Z,3.10
2023-12-31T11:31:42.759Z,3.22
2023-12-31T11:34:10.830Z,4.35
2023-12-31T11:36:38.072Z,3.67
2023-12-31T11:39:15.679Z,9.15
2023-12-31T11:41:51.189Z,5.25
2023-12-31T11:44:45.150Z,5.70
2023-12-31T11:47:17.163Z,5.20
2023-12-31T11:49:51.426Z,3.65
2023-12-31T11:52:21.227Z,2.78
2023-12-31T11:54:48.183Z,2.83
2023-12-31T11:57:18.223Z,3.22
2023-12-31T11:59:45.877Z,4.40
2023-12-31T12:02:12.633Z,6.40
2023-12-31T12:04:39.416Z,7.90
2023-12-31T12:07:06.299Z,6.57
2023-12-31T12:09:34.262Z,6.07
2023-12-31T12:12:04.575Z,6.22
2023-12-31T12:14:32.035Z,2.80
2023-12-31T12:17:03.577Z,1.83
2023-12-31T12:19:36.297Z,3.22
2023-12-31T12:22:04.287Z,1.35
2023-12-31T12:24:31.173Z,2.33
2023-12-31T12:27:04.102Z,3.03
2023-12-31T12:29:32.627Z,3.78
2023-12-31T12:32:03.890Z,3.72
2023-12-31T12:34:31.314Z,3.53
2023-12-31T12:37:00.100Z,2.20
2023-12-31T12:39:26.740Z,1.42
2023-12-31T12:41:54.477Z,2.38
2023-12-31T12:44:23.797Z,2.03
2023-12-31T12:46:52.887Z,2.80
2023-12-31T12:49:21.230Z,5.45
2023-12-31T12:51:48.437Z,1.95
2023-12-31T12:54:16.015Z,1.85
2023-12-31T12:56:44.883Z,0.98
2023-12-31T12:59:11.816Z,3.92
2023-12-31T13:01:38.561Z,2.35
2023-12-31T13:04:11.783Z,2.88
2023-12-31T13:06:39.687Z,3.08
2023-12-31T13:09:07.647Z,1.75
2023-12-31T13:11:36.268Z,1.00
2023-12-31T13:14:03.058Z,2.63
2023-12-31T13:16:40.191Z,2.80
2023-12-31T13:19:14.743Z,3.15
2023-12-31T13:21:41.550Z,2.55
2023-12-31T13:24:08.295Z,2.92
2023-12-31T13:26:34.910Z,1.20
2023-12-31T13:29:04.264Z,1.30
2023-12-31T13:31:32.071Z,3.60
2023-12-31T13:33:59.147Z,2.15
2023-12-31T13:36:25.932Z,1.63
2023-12-31T13:38:52.725Z,3.17
2023-12-31T13:41:23.605Z,0.82
2023-12-31T13:43:51.517Z,2.05
2023-12-31T13:46:18.226Z,2.65
2023-12-31T13:48:44.984Z,1.83
2023-12-31T13:51:11.724Z,0.60
2023-12-31T13:53:38.948Z,2.78
2023-12-31T13:56:07.067Z,4.22
2023-12-31T13:58:33.746Z,5.15
2023-12-31T14:01:00.984Z,3.80
2023-12-31T14:03:27.751Z,4.95
2023-12-31T14:05:54.446Z,1.95
2023-12-31T14:08:21.063Z,5.40
2023-12-31T14:10:47.903Z,9.27
2023-12-31T14:13:14.659Z,3.17
2023-12-31T14:15:41.491Z,4.45
2023-12-31T14:18:08.358Z,4.60
2023-12-31T14:20:35.211Z,3.55
2023-12-31T14:23:02.200Z,2.83
2023-12-31T14:25:29.085Z,4.43
2023-12-31T14:27:55.735Z,5.03
2023-12-31T14:30:22.607Z,3.00
2023-12-31T14:32:49.646Z,1.50
2023-12-31T14:35:16.632Z,2.97
2023-12-31T14:37:43.407Z,6.63
2023-12-31T14:40:10.539Z,2.13
2023-12-31T14:42:37.620Z,4.50
2023-12-31T14:45:07.226Z,6.28
2023-12-31T14:47:34.203Z,3.40
2023-12-31T14:50:01.081Z,2.92
2023-12-31T14:52:27.817Z,6.57
2023-12-31T14:54:54.557Z,2.67
2023-12-31T14:57:21.604Z,4.75
2023-12-31T14:59:48.220Z,3.63
2023-12-31T15:02:24.253Z,5.03
2023-12-31T15:05:00.868Z,6.32
2023-12-31T15:07:34.007Z,2.92
2023-12-31T15:10:00.955Z,5.40
2023-12-31T15:12:28.696Z,9.65
2023-12-31T15:14:55.404Z,7.90
2023-12-31T15:17:22.108Z,2.95
2023-12-31T15:19:48.747Z,6.05
2023-12-31T15:22:15.401Z,4.75
2023-12-31T15:24:42.098Z,4.60
2023-12-31T15:27:08.765Z,4.65
2023-12-31T15:29:35.623Z,2.38
2023-12-31T15:32:02.402Z,3.55
2023-12-31T15:34:29.427Z,2.92
2023-12-31T15:36:56.432Z,5.18
2023-12-31T15:39:24.295Z,2.40
2023-12-31T15:41:51.488Z,3.85
2023-12-31T15:44:18.351Z,9.02
2023-12-31T15:46:45.221Z,7.07
2023-12-31T15:49:12.628Z,11.02
2023-12-31T15:51:39.589Z,5.30
2023-12-31T15:54:06.294Z,8.50
2023-12-31T15:56:32.957Z,4.00
2023-12-31T15:58:59.669Z,4.20
2023-12-31T16:01:26.435Z,5.43
2023-12-31T16:03:53.474Z,6.35
2023-12-31T16:06:20.224Z,4.97
2023-12-31T16:08:46.968Z,5.72
2023-12-31T16:11:14.467Z,4.93
2023-12-31T16:13:41.206Z,7.35
2023-12-31T16:16:09.030Z,5.68
2023-12-31T16:18:36.412Z,7.57
2023-12-31T16:21:03.221Z,8.25
2023-12-31T16:23:29.858Z,5.80
2023-12-31T16:25:56.541Z,4.57
2023-12-31T16:28:25.028Z,4.70
2023-12-31T16:30:51.870Z,8.07
2023-12-31T16:33:18.641Z,9.48
2023-12-31T16:35:45.524Z,7.22
2023-12-31T16:38:12.338Z,5.70
2023-12-31T16:40:39.436Z,8.20
2023-12-31T16:43:09.285Z,8.15
2023-12-31T16:45:36.929Z,8.18
2023-12-31T16:48:06.182Z,6.93
2023-12-31T16:50:35.143Z,7.47
2023-12-31T16:53:04.982Z,7.53
2023-12-31T16:55:31.861Z,7.90
2023-12-31T16:57:58.560Z,8.25
2023-12-31T17:00:25.871Z,10.40
2023-12-31T17:02:52.661Z,16.17
2023-12-31T17:05:25.171Z,7.30
2023-12-31T17:07:51.926Z,8.63
2023-12-31T17:10:18.589Z,6.38
2023-12-31T17:12:46.450Z,7.93
2023-12-31T17:15:14.482Z,3.35
2023-12-31T17:17:41.553Z,6.05
2023-12-31T17:20:09.056Z,7.00
2023-12-31T17:22:36.652Z,5.90
2023-12-31T17:25:05.608Z,8.07
2023-12-31T17:27:33.121Z,7.60
2023-12-31T17:30:01.127Z,6.03
2023-12-31T17:32:28.292Z,8.00
2023-12-31T17:34:55.019Z,6.88
2023-12-31T17:37:21.698Z,7.20
2023-12-31T17:39:48.453Z,6.97
2023-12-31T17:42:15.139Z,11.90
2023-12-31T17:44:41.752Z,8.57
2023-12-31T17:47:08.595Z,5.93
2023-12-31T17:49:35.270Z,6.55
2023-12-31T17:52:02.009Z,11.95
2023-12-31T17:54:29.216Z,4.28
2023-12-31T17:56:55.908Z,4.10
2023-12-31T17:59:25.825Z,7.30
2023-12-31T18:01:52.457Z,9.70
2023-12-31T18:04:19.129Z,10.40
2023-12-31T18:06:45.746Z,10.95
2023-12-31T18:09:12.401Z,13.80
2023-12-31T18:11:39.025Z,8.18
2023-12-31T18:14:05.721Z,12.60
2023-12-31T18:16:32.470Z,9.00
2023-12-31T18:19:00.541Z,6.28
2023-12-31T18:21:28.178Z,10.07
2023-12-31T18:23:56.223Z,10.57
2023-12-31T18:26:23.461Z,5.43
2023-12-31T18:28:50.097Z,8.95
2023-12-31T18:31:17.033Z,9.18
2023-12-31T18:33:43.760Z,20.73
2023-12-31T18:36:11.722Z,6.63
2023-12-31T18:38:38.377Z,9.05
2023-12-31T18:41:05.203Z,6.72
2023-12-31T18:43:31.893Z,5.60
2023-12-31T18:46:04.384Z,6.32
2023-12-31T18:48:31.558Z,8.43
2023-12-31T18:50:59.716Z,11.02
2023-12-31T18:53:26.334Z,14.35
2023-12-31T18:55:53.076Z,9.07
2023-12-31T18:58:19.809Z,13.65
2023-12-31T19:00:46.616Z,7.95
2023-12-31T19:03:13.618Z,6.32
2023-12-31T19:05:40.371Z,4.68
2023-12-31T19:08:08.963Z,5.47
2023-12-31T19:10:35.894Z,5.90
2023-12-31T19:13:02.612Z,4.53
2023-12-31T19:15:29.226Z,6.25
2023-12-31T19:17:55.900Z,8.00
2023-12-31T19:20:22.564Z,7.78
2023-12-31T19:22:49.304Z,6.90
2023-12-31T19:25:16.138Z,5.68
2023-12-31T19:27:42.869Z,7.47
2023-12-31T19:30:10.301Z,8.32
2023-12-31T19:32:44.308Z,8.02
2023-12-31T19:35:12.828Z,5.43
2023-12-31T19:37:40.469Z,5.53
2023-12-31T19:40:08.178Z,5.88
2023-12-31T19:42:34.855Z,6.45
2023-12-31T19:45:01.760Z,8.90
2023-12-31T19:47:28.523Z,10.10
2023-12-31T19:49:58.985Z,8.00
2023-12-31T19:52:29.223Z,9.73
2023-12-31T19:54:56.042Z,6.05
2023-12-31T19:57:22.805Z,7.25
2023-12-31T19:59:51.030Z,5.40
2023-12-31T20:02:18.771Z,4.85
2023-12-31T20:04:45.592Z,6.18
2023-12-31T20:07:12.374Z,5.00
2023-12-31T20:09:39.462Z,5.28
2023-12-31T20:12:07.497Z,8.43
2023-12-31T20:14:34.205Z,4.32
2023-12-31T20:17:00.993Z,5.88
2023-12-31T20:19:27.628Z,5.75
2023-12-31T20:21:54.460Z,8.02
2023-12-31T20:24:21.064Z,4.72
2023-12-31T20:26:47.769Z,8.13
2023-12-31T20:29:16.901Z,4.30
2023-12-31T20:31:45.542Z,7.13
2023-12-31T20:34:13.536Z,5.22
2023-12-31T20:36:40.173Z,4.25
2023-12-31T20:39:06.907Z,6.90
2023-12-31T20:41:33.514Z,7.55
2023-12-31T20:44:00.323Z,7.72
2023-12-31T20:46:27.095Z,7.15
2023-12-31T20:48:54.107Z,6.82
2023-12-31T20:51:23.393Z,5.90
2023-12-31T20:53:50.040Z,6.60
2023-12-31T20:56:18.535Z,4.55
2023-12-31T20:58:45.183Z,8.15
2023-12-31T21:01:11.863Z,7.63
2023-12-31T21:03:38.728Z,7.18
2023-12-31T21:06:05.761Z,15.93
2023-12-31T21:08:32.505Z,12.40
2023-12-31T21:11:01.167Z,7.90
2023-12-31T21:13:27.919Z,5.57
2023-12-31T21:15:55.115Z,6.07
2023-12-31T21:18:21.886Z,6.15
2023-12-31T21:20:53.081Z,7.63
2023-12-31T21:23:20.571Z,6.18
2023-12-31T21:25:47.236Z,6.53
2023-12-31T21:28:13.937Z,8.88
2023-12-31T21:30:42.506Z,4.95
2023-12-31T21:33:10.907Z,6.07
2023-12-31T21:35:37.868Z,5.30
2023-12-31T21:38:05.097Z,4.80
2023-12-31T21:40:31.988Z,5.97
2023-12-31T21:42:59.367Z,5.03
2023-12-31T21:45:27.345Z,3.10
2023-12-31T21:47:54.071Z,3.83
2023-12-31T21:50:20.864Z,5.70
2023-12-31T21:52:47.564Z,4.78
2023-12-31T21:55:22.887Z,5.88
2023-12-31T21:57:55.236Z,4.97
2023-12-31T22:00:21.931Z,4.45
2023-12-31T22:02:51.388Z,5.20
2023-12-31T22:05:18.294Z,8.25
2023-12-31T22:07:45.241Z,5.80
2023-12-31T22:10:12.004Z,4.88
2023-12-31T22:12:41.647Z,7.85
2023-12-31T22:15:08.923Z,5.13
2023-12-31T22:17:35.636Z,7.07
2023-12-31T22:20:04.384Z,7.53
2023-12-31T22:22:31.762Z,8.98
2023-12-31T22:24:58.770Z,9.20
2023-12-31T22:27:27.713Z,8.25
2023-12-31T22:29:55.143Z,7.13
2023-12-31T22:32:21.789Z,6.85
2023-12-31T22:34:48.506Z,6.80
2023-12-31T22:37:15.227Z,6.45
2023-12-31T22:39:44.418Z,7.00
2023-12-31T22:42:11.067Z,5.13
2023-12-31T22:44:37.757Z,6.45
2023-12-31T22:47:04.599Z,5.65
2023-12-31T22:49:31.342Z,10.48
2023-12-31T22:51:58.000Z,7.00
2023-12-31T22:54:24.639Z,8.00
2023-12-31T22:56:51.842Z,3.15
2023-12-31T22:59:19.126Z,4.22
2023-12-31T23:01:46.103Z,6.80
2023-12-31T23:04:12.789Z,111.95
2023-12-31T23:06:39.388Z,118.85
2023-12-31T23:09:06.009Z,75.68
2023-12-31T23:11:32.625Z,115.82
2023-12-31T23:13:59.411Z,29.33
2023-12-31T23:16:26.081Z,13.88
2023-12-31T23:18:53.746Z,11.27
2023-12-31T23:21:20.529Z,97.30
2023-12-31T23:23:47.304Z,20.77
2023-12-31T23:26:14.001Z,9.88
2023-12-31T23:28:40.677Z,13.70
2023-12-31T23:31:08.496Z,47.78
2023-12-31T23:33:35.194Z,16.95
2023-12-31T23:36:01.808Z,13.57
2023-12-31T23:38:28.419Z,17.50
2023-12-31T23:40:55.110Z,16.75
2023-12-31T23:43:21.764Z,17.65
2023-12-31T23:45:48.390Z,16.63
2023-12-31T23:48:15.091Z,16.05
2023-12-31T23:50:41.751Z,16.13
2023-12-31T23:53:08.396Z,12.10
2023-12-31T23:55:36.445Z,14.45
2023-12-31T23:58:08.380Z,12.05
